createdAt,value
2023-05-13T00:03:08.718Z,57.31
2023-05-13T00:08:12.077Z,58.85
2023-05-13T00:13:14.835Z,60.48
2023-05-13T00:18:17.713Z,60.26
2023-05-13T00:23:20.566Z,70.45
2023-05-13T00:28:23.374Z,58.71
2023-05-13T00:33:26.491Z,52.72
2023-05-13T00:38:29.311Z,56.13
2023-05-13T00:43:32.252Z,58.34
2023-05-13T00:48:35.099Z,58.86
2023-05-13T00:53:39.348Z,61.59
2023-05-13T00:58:42.198Z,71.69
2023-05-13T01:04:00.912Z,61.08
2023-05-13T01:09:24.889Z,52.53
2023-05-13T01:14:34.245Z,56.48
2023-05-13T01:20:10.066Z,59.21
2023-05-13T01:25:12.955Z,67.85
2023-05-13T01:30:16.404Z,60.96
2023-05-13T01:35:20.692Z,53.41
2023-05-13T01:40:32.523Z,56.48
2023-05-13T01:45:36.253Z,59.61
2023-05-13T01:50:39.129Z,67.71
2023-05-13T01:55:42.091Z,57.12
2023-05-13T02:00:44.930Z,53.69
2023-05-13T02:05:48.984Z,57.44
2023-05-13T02:10:59.187Z,60.50
2023-05-13T02:16:02.004Z,69.27
2023-05-13T02:21:04.870Z,57.90
2023-05-13T02:26:07.665Z,55.32
2023-05-13T02:31:10.602Z,57.76
2023-05-13T02:36:13.440Z,60.25
2023-05-13T02:41:16.284Z,70.16
2023-05-13T02:46:19.087Z,60.94
2023-05-13T02:51:21.914Z,53.96
2023-05-13T02:56:24.734Z,58.39
2023-05-13T03:01:27.737Z,61.79
2023-05-13T03:06:31.775Z,69.24
2023-05-13T03:11:34.693Z,56.79
2023-05-13T03:16:37.699Z,54.95
2023-05-13T03:21:40.605Z,58.94
2023-05-13T03:26:43.505Z,60.90
2023-05-13T03:31:46.420Z,70.01
2023-05-13T03:36:49.312Z,57.00
2023-05-13T03:41:52.695Z,55.45
2023-05-13T03:46:55.458Z,58.72
2023-05-13T03:51:58.296Z,59.53
2023-05-13T03:57:01.413Z,61.17
2023-05-13T04:02:04.365Z,71.95
2023-05-13T04:07:07.241Z,60.07
2023-05-13T04:12:10.065Z,53.20
2023-05-13T04:17:12.941Z,57.14
2023-05-13T04:22:15.870Z,58.60
2023-05-13T04:27:18.760Z,57.30
2023-05-13T04:32:22.015Z,60.59
2023-05-13T04:37:25.662Z,61.47
2023-05-13T04:42:28.551Z,72.98
2023-05-13T04:47:35.272Z,58.57
2023-05-13T04:52:38.351Z,53.60
2023-05-13T04:57:41.306Z,55.00
2023-05-13T05:02:44.193Z,56.14
2023-05-13T05:07:47.075Z,56.44
2023-05-13T05:12:50.840Z,56.50
2023-05-13T05:17:53.958Z,58.39
2023-05-13T05:22:56.810Z,58.00
2023-05-13T05:27:59.678Z,56.74
2023-05-13T05:33:02.562Z,58.43
2023-05-13T05:38:06.967Z,58.60
2023-05-13T05:43:13.900Z,58.37
2023-05-13T05:48:17.346Z,58.44
2023-05-13T05:53:20.675Z,58.21
2023-05-13T05:58:23.729Z,58.59
2023-05-13T06:03:26.845Z,57.77
2023-05-13T06:08:31.117Z,57.16
2023-05-13T06:13:33.902Z,56.98
2023-05-13T06:18:36.700Z,56.33
2023-05-13T06:23:40.033Z,55.65
2023-05-13T06:28:42.853Z,55.09
2023-05-13T06:33:45.770Z,54.11
2023-05-13T06:38:48.523Z,53.13
2023-05-13T06:43:51.366Z,52.91
2023-05-13T06:48:56.800Z,51.29
2023-05-13T06:53:59.731Z,51.19
2023-05-13T06:59:02.604Z,48.63
2023-05-13T07:04:05.552Z,48.35
2023-05-13T07:09:11.292Z,48.34
2023-05-13T07:14:14.168Z,48.73
2023-05-13T07:19:17.193Z,46.07
2023-05-13T07:24:20.172Z,45.01
2023-05-13T07:29:23.012Z,44.30
2023-05-13T07:34:25.902Z,43.61
2023-05-13T07:39:28.800Z,41.82
2023-05-13T07:44:31.639Z,40.51
2023-05-13T07:49:34.426Z,39.21
2023-05-13T07:54:37.213Z,39.34
2023-05-13T07:59:40.083Z,39.22
2023-05-13T08:04:42.960Z,38.21
2023-05-13T08:09:45.846Z,37.51
2023-05-13T08:14:49.129Z,36.84
2023-05-13T08:19:52.010Z,35.92
2023-05-13T08:24:54.833Z,33.52
2023-05-13T08:29:57.755Z,33.65
2023-05-13T08:35:01.433Z,33.03
2023-05-13T08:40:04.932Z,34.38
2023-05-13T08:45:08.908Z,33.09
2023-05-13T08:50:12.823Z,32.83
2023-05-13T08:55:16.325Z,32.17
2023-05-13T09:00:21.441Z,31.86
2023-05-13T09:05:25.394Z,30.53
2023-05-13T09:10:28.608Z,30.72
2023-05-13T09:15:32.174Z,30.76
2023-05-13T09:20:35.679Z,30.59
2023-05-13T09:25:39.138Z,30.46
2023-05-13T09:30:45.667Z,29.80
2023-05-13T09:35:55.230Z,28.37
2023-05-13T09:41:00.104Z,27.81
2023-05-13T09:46:05.023Z,28.21
2023-05-13T09:51:09.115Z,27.64
2023-05-13T09:56:11.920Z,27.29
2023-05-13T10:01:14.886Z,27.53
2023-05-13T10:06:18.954Z,27.99
2023-05-13T10:11:23.899Z,28.34
2023-05-13T10:16:27.903Z,28.34
2023-05-13T10:21:31.602Z,28.60
2023-05-13T10:26:34.709Z,28.77
2023-05-13T10:31:38.510Z,27.86
2023-05-13T10:36:46.729Z,26.88
2023-05-13T10:41:55.744Z,26.87
2023-05-13T10:46:58.708Z,27.07
2023-05-13T10:52:06.153Z,26.22
2023-05-13T10:57:09.835Z,25.79
2023-05-13T11:02:23.673Z,26.11
2023-05-13T11:07:29.911Z,25.99
2023-05-13T11:12:32.744Z,26.14
2023-05-13T11:17:37.198Z,25.17
2023-05-13T11:22:41.836Z,24.96
2023-05-13T11:27:47.103Z,24.48
2023-05-13T11:32:49.907Z,25.17
2023-05-13T11:37:53.223Z,25.34
2023-05-13T11:42:56.771Z,25.29
2023-05-13T11:48:19.445Z,25.02
2023-05-13T11:53:22.682Z,24.60
2023-05-13T11:58:25.819Z,25.20
2023-05-13T12:03:28.697Z,25.31
2023-05-13T12:08:31.936Z,25.00
2023-05-13T12:13:35.760Z,24.45
2023-05-13T12:18:38.703Z,23.47
2023-05-13T12:23:41.676Z,24.10
2023-05-13T12:28:44.532Z,23.90
2023-05-13T12:33:49.417Z,23.53
2023-05-13T12:39:00.221Z,22.49
2023-05-13T12:44:16.375Z,23.41
2023-05-13T12:49:19.311Z,23.30
2023-05-13T12:54:22.246Z,23.54
2023-05-13T12:59:26.661Z,23.45
2023-05-13T13:04:29.888Z,23.27
2023-05-13T13:09:32.897Z,23.42
2023-05-13T13:14:35.695Z,23.14
2023-05-13T13:19:38.477Z,22.70
2023-05-13T13:24:41.556Z,22.47
2023-05-13T13:29:44.795Z,22.64
2023-05-13T13:34:47.635Z,23.09
2023-05-13T13:39:50.414Z,22.97
2023-05-13T13:44:53.322Z,23.45
2023-05-13T13:49:56.123Z,23.30
2023-05-13T13:54:59.027Z,22.96
2023-05-13T14:00:01.890Z,23.19
2023-05-13T14:05:05.230Z,26.30
2023-05-13T14:10:09.120Z,28.60
2023-05-13T14:15:12.224Z,27.63
2023-05-13T14:20:15.087Z,27.76
2023-05-13T14:25:17.932Z,29.40
2023-05-13T14:30:20.914Z,28.67
2023-05-13T14:35:23.982Z,26.94
2023-05-13T14:40:26.798Z,26.82
2023-05-13T14:45:29.751Z,25.60
2023-05-13T14:50:32.706Z,23.24
2023-05-13T14:55:35.566Z,23.67
2023-05-13T15:00:39.007Z,22.94
2023-05-13T15:05:44.022Z,23.18
2023-05-13T15:10:47.192Z,23.60
2023-05-13T15:15:50.040Z,23.87
2023-05-13T15:20:52.981Z,24.94
2023-05-13T15:25:56.196Z,26.55
2023-05-13T15:30:59.093Z,26.60
2023-05-13T15:36:02.018Z,26.45
2023-05-13T15:41:05.519Z,26.99
2023-05-13T15:46:08.672Z,27.75
2023-05-13T15:51:11.593Z,27.95
2023-05-13T15:56:14.537Z,28.45
2023-05-13T16:01:17.681Z,28.63
2023-05-13T16:06:20.775Z,28.65
2023-05-13T16:11:24.880Z,28.72
2023-05-13T16:16:27.846Z,28.69
2023-05-13T16:21:31.788Z,28.58
2023-05-13T16:26:34.873Z,29.10
2023-05-13T16:31:37.822Z,29.43
2023-05-13T16:36:40.793Z,30.45
2023-05-13T16:41:43.622Z,30.88
2023-05-13T16:46:46.426Z,32.07
2023-05-13T16:51:49.230Z,32.38
2023-05-13T16:56:52.126Z,32.84
2023-05-13T17:01:55.597Z,32.10
2023-05-13T17:06:59.266Z,33.30
2023-05-13T17:12:02.271Z,34.29
2023-05-13T17:17:05.471Z,34.96
2023-05-13T17:22:08.499Z,34.09
2023-05-13T17:27:11.521Z,32.59
2023-05-13T17:32:14.577Z,30.78
2023-05-13T17:37:17.374Z,29.95
2023-05-13T17:42:20.208Z,30.14
2023-05-13T17:47:23.028Z,30.79
2023-05-13T17:52:25.844Z,31.35
2023-05-13T17:57:28.806Z,32.31
2023-05-13T18:02:31.742Z,33.52
2023-05-13T18:07:34.879Z,35.37
2023-05-13T18:12:37.910Z,36.55
2023-05-13T18:17:41.096Z,37.91
2023-05-13T18:22:43.949Z,39.12
2023-05-13T18:27:46.830Z,40.93
2023-05-13T18:32:50.889Z,39.91
2023-05-13T18:37:54.582Z,42.49
2023-05-13T18:42:58.014Z,44.10
2023-05-13T18:48:00.906Z,42.56
2023-05-13T18:53:03.861Z,42.07
2023-05-13T18:58:06.759Z,40.83
2023-05-13T19:03:11.446Z,43.45
2023-05-13T19:08:15.085Z,42.61
2023-05-13T19:13:19.894Z,44.74
2023-05-13T19:18:22.822Z,45.11
2023-05-13T19:23:25.634Z,45.72
2023-05-13T19:28:28.605Z,44.91
2023-05-13T19:33:31.893Z,47.69
2023-05-13T19:38:35.568Z,50.26
2023-05-13T19:43:38.372Z,50.79
2023-05-13T19:48:41.241Z,50.06
2023-05-13T19:53:44.061Z,49.60
2023-05-13T19:58:46.885Z,51.54
2023-05-13T20:03:49.772Z,52.06
2023-05-13T20:08:52.640Z,52.37
2023-05-13T20:13:55.941Z,55.32
2023-05-13T20:18:58.772Z,56.59
2023-05-13T20:24:01.654Z,57.06
2023-05-13T20:29:04.560Z,57.78
2023-05-13T20:34:07.448Z,59.22
2023-05-13T20:39:10.598Z,60.04
2023-05-13T20:44:15.953Z,57.75
2023-05-13T20:49:18.941Z,60.75
2023-05-13T20:54:21.784Z,58.07
2023-05-13T20:59:24.569Z,60.50
2023-05-13T21:04:27.418Z,60.30
2023-05-13T21:09:30.242Z,57.93
2023-05-13T21:14:33.057Z,58.60
2023-05-13T21:19:35.958Z,60.85
2023-05-13T21:24:38.775Z,61.69
2023-05-13T21:29:41.575Z,73.99
2023-05-13T21:34:44.654Z,61.61
2023-05-13T21:39:47.514Z,54.23
2023-05-13T21:44:50.366Z,57.05
2023-05-13T21:49:53.164Z,59.28
2023-05-13T21:54:56.030Z,62.18
2023-05-13T21:59:58.812Z,67.38
2023-05-13T22:05:01.860Z,54.45
2023-05-13T22:10:05.010Z,56.92
2023-05-13T22:15:08.130Z,59.83
2023-05-13T22:20:11.821Z,58.43
2023-05-13T22:25:14.727Z,68.21
2023-05-13T22:30:17.793Z,57.72
2023-05-13T22:35:20.778Z,54.98
2023-05-13T22:40:23.795Z,58.62
2023-05-13T22:45:26.855Z,62.30
2023-05-13T22:50:29.692Z,66.56
2023-05-13T22:55:32.614Z,55.01
2023-05-13T23:00:35.414Z,57.55
2023-05-13T23:05:38.388Z,60.82
2023-05-13T23:10:41.181Z,67.65
2023-05-13T23:15:44.072Z,56.21
2023-05-13T23:20:53.825Z,56.52
2023-05-13T23:25:56.731Z,60.42
2023-05-13T23:30:59.627Z,66.88
2023-05-13T23:36:02.595Z,60.22
2023-05-13T23:41:05.402Z,55.78
2023-05-13T23:46:08.269Z,59.98
2023-05-13T23:51:11.058Z,60.28
2023-05-13T23:56:13.907Z,69.28
